createdAt,value
2018-12-01T00:00:13.181Z,851.99
2018-12-01T00:01:13.181Z,851.98
2018-12-01T00:02:13.120Z,851.96
2018-12-01T00:03:13.135Z,851.95
2018-12-01T00:04:13.113Z,851.95
2018-12-01T00:05:13.089Z,851.95
2018-12-01T00:06:13.121Z,852.04
2018-12-01T00:07:13.074Z,852.00
2018-12-01T00:08:13.078Z,851.99
2018-12-01T00:09:13.050Z,851.96
2018-12-01T00:10:13.035Z,851.98
2018-12-01T00:11:13.028Z,851.94
2018-12-01T00:12:13.022Z,851.98
2018-12-01T00:13:13.008Z,851.93
2018-12-01T00:14:13.003Z,851.97
2018-12-01T00:15:13.003Z,851.95
2018-12-01T00:16:12.980Z,851.92
2018-12-01T00:17:13.008Z,851.88
2018-12-01T00:18:12.955Z,851.89
2018-12-01T00:19:12.947Z,851.85
2018-12-01T00:20:12.931Z,851.85
2018-12-01T00:21:12.978Z,851.82
2018-12-01T00:22:12.914Z,851.83
2018-12-01T00:23:12.944Z,851.87
2018-12-01T00:24:12.902Z,851.81
2018-12-01T00:25:12.874Z,851.83
2018-12-01T00:26:12.874Z,851.78
2018-12-01T00:27:12.942Z,851.86
2018-12-01T00:28:12.849Z,851.79
2018-12-01T00:29:12.880Z,851.84
2018-12-01T00:30:12.838Z,851.81
2018-12-01T00:31:12.829Z,851.84
2018-12-01T00:32:12.819Z,851.83
2018-12-01T00:33:12.800Z,851.86
2018-12-01T00:34:12.829Z,851.89
2018-12-01T00:35:12.778Z,851.90
2018-12-01T00:36:12.774Z,851.87
2018-12-01T00:37:12.746Z,851.90
2018-12-01T00:38:12.739Z,851.93
2018-12-01T00:39:12.758Z,851.94
2018-12-01T00:40:12.733Z,851.89
2018-12-01T00:41:12.719Z,851.87
2018-12-01T00:42:12.686Z,851.87
2018-12-01T00:43:12.678Z,851.88
2018-12-01T00:44:12.708Z,851.88
2018-12-01T00:45:12.661Z,851.89
2018-12-01T00:46:12.647Z,851.90
2018-12-01T00:47:12.669Z,851.92
2018-12-01T00:48:12.622Z,851.95
2018-12-01T00:49:12.643Z,851.95
2018-12-01T00:50:12.647Z,851.97
2018-12-01T00:51:12.599Z,851.98
2018-12-01T00:52:12.577Z,851.96
2018-12-01T00:53:12.586Z,851.95
2018-12-01T00:54:12.559Z,852.06
2018-12-01T00:55:12.594Z,851.97
2018-12-01T00:56:12.555Z,852.00
2018-12-01T00:57:12.529Z,851.97
2018-12-01T00:58:12.524Z,851.98
2018-12-01T00:59:12.502Z,852.00
2018-12-01T01:00:12.534Z,851.98
2018-12-01T01:01:12.543Z,852.01
2018-12-01T01:02:12.486Z,852.03
2018-12-01T01:03:12.515Z,852.03
2018-12-01T01:04:12.450Z,852.07
2018-12-01T01:05:12.443Z,852.10
2018-12-01T01:06:12.434Z,852.08
2018-12-01T01:07:12.420Z,852.12
2018-12-01T01:08:12.469Z,852.13
2018-12-01T01:09:12.405Z,852.10
2018-12-01T01:10:12.389Z,852.14
2018-12-01T01:11:12.430Z,852.15
2018-12-01T01:12:12.363Z,852.19
2018-12-01T01:13:12.358Z,852.21
2018-12-01T01:14:12.346Z,852.19
2018-12-01T01:15:12.355Z,852.17
2018-12-01T01:16:12.363Z,852.17
2018-12-01T01:17:12.324Z,852.16
2018-12-01T01:18:12.301Z,852.15
2018-12-01T01:19:12.351Z,852.18
2018-12-01T01:20:12.285Z,852.15
2018-12-01T01:21:12.288Z,852.18
2018-12-01T01:22:12.272Z,852.19
2018-12-01T01:23:12.245Z,852.16
2018-12-01T01:24:12.286Z,852.19
2018-12-01T01:25:12.252Z,852.21
2018-12-01T01:26:12.213Z,852.20
2018-12-01T01:27:12.213Z,852.21
2018-12-01T01:28:12.214Z,852.18
2018-12-01T01:29:12.220Z,852.16
2018-12-01T01:30:12.187Z,852.17
2018-12-01T01:31:12.155Z,852.16
2018-12-01T01:32:12.152Z,852.18
2018-12-01T01:33:12.138Z,852.19
2018-12-01T01:34:12.180Z,852.19
2018-12-01T01:35:12.135Z,852.16
2018-12-01T01:36:12.195Z,852.20
2018-12-01T01:37:12.135Z,852.15
2018-12-01T01:38:12.094Z,852.17
2018-12-01T01:39:12.075Z,852.19
2018-12-01T01:40:12.091Z,852.21
2018-12-01T01:41:12.056Z,852.16
2018-12-01T01:42:12.060Z,852.17
2018-12-01T01:43:12.028Z,852.16
2018-12-01T01:44:12.017Z,852.14
2018-12-01T01:45:12.027Z,852.09
2018-12-01T01:46:12.025Z,852.12
2018-12-01T01:47:12.006Z,852.13
2018-12-01T01:48:11.975Z,852.09
2018-12-01T01:49:11.970Z,852.05
2018-12-01T01:50:11.976Z,852.08
2018-12-01T01:51:12.172Z,852.08
2018-12-01T01:52:11.927Z,852.09
2018-12-01T01:53:11.917Z,852.10
2018-12-01T01:54:11.918Z,852.08
2018-12-01T01:55:11.920Z,852.10
2018-12-01T01:56:11.937Z,852.09
2018-12-01T01:57:11.897Z,852.14
2018-12-01T01:58:11.872Z,852.14
2018-12-01T01:59:11.861Z,852.15
2018-12-01T02:00:11.855Z,852.13
2018-12-01T02:01:11.885Z,852.13
2018-12-01T02:02:11.829Z,852.13
2018-12-01T02:03:11.819Z,852.12
2018-12-01T02:04:11.856Z,852.08
2018-12-01T02:05:11.808Z,852.15
2018-12-01T02:06:11.781Z,852.10
2018-12-01T02:07:11.770Z,852.09
2018-12-01T02:08:11.798Z,852.11
2018-12-01T02:09:11.749Z,852.14
2018-12-01T02:10:11.731Z,852.13
2018-12-01T02:11:11.780Z,852.15
2018-12-01T02:12:11.711Z,852.14
2018-12-01T02:13:11.704Z,852.17
2018-12-01T02:14:11.705Z,852.16
2018-12-01T02:15:11.676Z,852.14
2018-12-01T02:16:11.711Z,852.18
2018-12-01T02:17:11.685Z,852.15
2018-12-01T02:18:11.663Z,852.19
2018-12-01T02:19:11.637Z,852.15
2018-12-01T02:20:11.639Z,852.14
2018-12-01T02:21:11.654Z,852.11
2018-12-01T02:22:11.614Z,852.10
2018-12-01T02:23:11.603Z,852.10
2018-12-01T02:24:11.640Z,852.06
2018-12-01T02:25:11.578Z,852.07
2018-12-01T02:26:11.573Z,852.03
2018-12-01T02:27:11.553Z,852.04
2018-12-01T02:28:11.608Z,852.07
2018-12-01T02:29:11.530Z,852.12
2018-12-01T02:30:11.547Z,852.11
2018-12-01T02:31:11.527Z,852.12
2018-12-01T02:32:11.495Z,852.15
2018-12-01T02:33:11.529Z,852.12
2018-12-01T02:34:11.488Z,852.10
2018-12-01T02:35:11.461Z,852.09
2018-12-01T02:36:11.451Z,852.15
2018-12-01T02:37:11.460Z,852.14
2018-12-01T02:38:11.486Z,852.11
2018-12-01T02:39:11.467Z,852.08
2018-12-01T02:40:11.443Z,852.09
2018-12-01T02:41:11.394Z,852.08
2018-12-01T02:42:11.392Z,852.07
2018-12-01T02:43:11.382Z,852.11
2018-12-01T02:44:11.420Z,852.07
2018-12-01T02:45:11.411Z,852.13
2018-12-01T02:46:11.349Z,852.05
2018-12-01T02:47:11.329Z,852.07
2018-12-01T02:48:11.329Z,852.11
2018-12-01T02:49:11.321Z,852.10
2018-12-01T02:50:11.363Z,852.09
2018-12-01T02:51:11.304Z,852.13
2018-12-01T02:52:11.283Z,852.12
2018-12-01T02:53:11.266Z,852.15
2018-12-01T02:54:11.263Z,852.14
2018-12-01T02:55:11.298Z,852.17
2018-12-01T02:56:11.252Z,852.20
2018-12-01T02:57:11.232Z,852.17
2018-12-01T02:58:11.239Z,852.18
2018-12-01T02:59:11.201Z,852.18
2018-12-01T03:00:11.197Z,852.17
2018-12-01T03:01:11.222Z,852.19
2018-12-01T03:02:11.225Z,852.21
2018-12-01T03:03:11.166Z,852.13
2018-12-01T03:04:11.156Z,852.10
2018-12-01T03:05:11.169Z,852.09
2018-12-01T03:06:11.189Z,852.11
2018-12-01T03:07:11.171Z,852.14
2018-12-01T03:08:11.119Z,852.14
2018-12-01T03:09:11.099Z,852.16
2018-12-01T03:10:11.085Z,852.14
2018-12-01T03:11:11.094Z,852.17
2018-12-01T03:12:11.105Z,852.15
2018-12-01T03:13:11.068Z,852.11
2018-12-01T03:14:11.085Z,852.10
2018-12-01T03:15:11.034Z,852.10
2018-12-01T03:16:11.021Z,852.15
2018-12-01T03:17:11.063Z,852.07
2018-12-01T03:18:13.581Z,852.14
2018-12-01T03:19:11.006Z,852.15
2018-12-01T03:20:10.986Z,852.09
2018-12-01T03:21:10.985Z,852.04
2018-12-01T03:22:10.989Z,852.05
2018-12-01T03:23:10.998Z,852.06
2018-12-01T03:24:10.935Z,852.10
2018-12-01T03:25:10.933Z,852.01
2018-12-01T03:26:10.925Z,852.04
2018-12-01T03:27:10.974Z,852.03
2018-12-01T03:28:10.903Z,852.05
2018-12-01T03:29:10.885Z,852.08
2018-12-01T03:30:10.874Z,852.15
2018-12-01T03:31:10.905Z,852.14
2018-12-01T03:32:10.895Z,852.13
2018-12-01T03:33:10.841Z,852.14
2018-12-01T03:34:10.824Z,852.12
2018-12-01T03:35:10.829Z,852.16
2018-12-01T03:36:10.810Z,852.14
2018-12-01T03:37:10.842Z,852.17
2018-12-01T03:38:10.837Z,852.16
2018-12-01T03:39:10.784Z,852.14
2018-12-01T03:40:10.758Z,852.14
2018-12-01T03:41:10.757Z,852.18
2018-12-01T03:42:10.781Z,852.17
2018-12-01T03:43:10.746Z,852.21
2018-12-01T03:44:10.777Z,852.25
2018-12-01T03:45:10.720Z,852.26
2018-12-01T03:46:31.019Z,852.21
2018-12-01T03:47:11.685Z,852.21
2018-12-01T03:48:10.726Z,852.23
2018-12-01T03:49:10.666Z,852.24
2018-12-01T03:50:10.659Z,852.28
2018-12-01T03:51:10.653Z,852.27
2018-12-01T03:52:10.640Z,852.25
2018-12-01T03:53:10.660Z,852.28
2018-12-01T03:54:10.622Z,852.28
2018-12-01T03:55:10.620Z,852.28
2018-12-01T03:56:10.595Z,852.31
2018-12-01T03:57:10.593Z,852.30
2018-12-01T03:58:10.620Z,852.30
2018-12-01T03:59:10.558Z,852.31
2018-12-01T04:00:10.551Z,852.32
2018-12-01T04:01:10.538Z,852.29
2018-12-01T04:02:10.527Z,852.29
2018-12-01T04:03:10.557Z,852.35
2018-12-01T04:04:10.517Z,852.33
2018-12-01T04:05:10.494Z,852.37
2018-12-01T04:06:10.483Z,852.36
2018-12-01T04:07:10.473Z,852.35
2018-12-01T04:08:10.494Z,852.41
2018-12-01T04:09:10.492Z,852.42
2018-12-01T04:10:10.479Z,852.41
2018-12-01T04:11:10.427Z,852.43
2018-12-01T04:12:10.420Z,852.41
2018-12-01T04:13:10.451Z,852.47
2018-12-01T04:14:10.400Z,852.46
2018-12-01T04:15:10.380Z,852.47
2018-12-01T04:16:10.371Z,852.45
2018-12-01T04:17:10.365Z,852.44
2018-12-01T04:18:10.408Z,852.46
2018-12-01T04:19:10.363Z,852.45
2018-12-01T04:20:10.329Z,852.45
2018-12-01T04:21:10.337Z,852.47
2018-12-01T04:22:10.304Z,852.48
2018-12-01T04:23:10.337Z,852.48
2018-12-01T04:24:10.293Z,852.43
2018-12-01T04:25:10.292Z,852.46
2018-12-01T04:26:10.264Z,852.43
2018-12-01T04:27:10.265Z,852.44
2018-12-01T04:28:10.276Z,852.43
2018-12-01T04:29:10.273Z,852.43
2018-12-01T04:30:10.248Z,852.44
2018-12-01T04:31:10.207Z,852.43
2018-12-01T04:32:10.195Z,852.47
2018-12-01T04:33:10.199Z,852.42
2018-12-01T04:34:10.217Z,852.38
2018-12-01T04:35:10.274Z,852.44
2018-12-01T04:36:10.166Z,852.42
2018-12-01T04:37:10.140Z,852.39
2018-12-01T04:38:10.138Z,852.44
2018-12-01T04:39:10.124Z,852.44
2018-12-01T04:40:10.158Z,852.42
2018-12-01T04:41:10.114Z,852.43
2018-12-01T04:42:10.105Z,852.42
2018-12-01T04:43:10.079Z,852.42
2018-12-01T04:44:10.072Z,852.39
2018-12-01T04:45:10.099Z,852.41
2018-12-01T04:46:10.060Z,852.44
2018-12-01T04:47:10.052Z,852.41
2018-12-01T04:48:10.023Z,852.45
2018-12-01T04:49:10.029Z,852.42
2018-12-01T04:50:10.027Z,852.45
2018-12-01T04:51:10.050Z,852.44
2018-12-01T04:52:09.982Z,852.44
2018-12-01T04:53:10.001Z,852.45
2018-12-01T04:54:09.959Z,852.45
2018-12-01T04:55:10.008Z,852.47
2018-12-01T04:56:09.934Z,852.43
2018-12-01T04:57:09.956Z,852.46
2018-12-01T04:58:09.922Z,852.51
2018-12-01T04:59:09.915Z,852.47
2018-12-01T05:00:09.937Z,852.44
2018-12-01T05:01:09.891Z,852.49
2018-12-01T05:02:09.880Z,852.51
2018-12-01T05:03:09.910Z,852.49
2018-12-01T05:04:09.868Z,852.49
2018-12-01T05:05:09.857Z,852.53
2018-12-01T05:06:09.877Z,852.51
2018-12-01T05:07:09.824Z,852.54
2018-12-01T05:08:09.809Z,852.52
2018-12-01T05:09:09.802Z,852.49
2018-12-01T05:10:09.788Z,852.50
2018-12-01T05:11:09.838Z,852.54
2018-12-01T05:12:09.797Z,852.58
2018-12-01T05:13:09.759Z,852.54
2018-12-01T05:14:09.762Z,852.58
2018-12-01T05:15:09.733Z,852.59
2018-12-01T05:16:09.758Z,852.58
2018-12-01T05:17:09.730Z,852.60
2018-12-01T05:18:09.713Z,852.63
2018-12-01T05:19:09.745Z,852.61
2018-12-01T05:20:09.677Z,852.65
2018-12-01T05:21:09.678Z,852.64
2018-12-01T05:22:09.702Z,852.65
2018-12-01T05:23:09.658Z,852.64
2018-12-01T05:24:09.652Z,852.61
2018-12-01T05:25:09.632Z,852.60
2018-12-01T05:26:09.614Z,852.61
2018-12-01T05:27:09.643Z,852.57
2018-12-01T05:28:09.600Z,852.60
2018-12-01T05:29:09.576Z,852.61
2018-12-01T05:30:09.584Z,852.59
2018-12-01T05:31:09.557Z,852.64
2018-12-01T05:32:09.627Z,852.61
2018-12-01T05:33:09.542Z,852.57
2018-12-01T05:34:09.532Z,852.59
2018-12-01T05:35:09.518Z,852.59
2018-12-01T05:36:09.506Z,852.62
2018-12-01T05:37:10.149Z,852.58
2018-12-01T05:38:09.513Z,852.61
2018-12-01T05:39:09.475Z,852.59
2018-12-01T05:40:09.471Z,852.58
2018-12-01T05:41:09.454Z,852.57
2018-12-01T05:42:09.479Z,852.60
2018-12-01T05:43:09.488Z,852.61
2018-12-01T05:44:09.425Z,852.66
2018-12-01T05:45:09.417Z,852.63
2018-12-01T05:46:09.412Z,852.69
2018-12-01T05:47:09.385Z,852.70
2018-12-01T05:48:09.416Z,852.72
2018-12-01T05:49:09.383Z,852.72
2018-12-01T05:50:09.355Z,852.66
2018-12-01T05:51:09.346Z,852.68
2018-12-01T05:52:09.342Z,852.68
2018-12-01T05:53:09.358Z,852.70
2018-12-01T05:54:09.317Z,852.72
2018-12-01T05:55:09.305Z,852.70
2018-12-01T05:56:09.291Z,852.72
2018-12-01T05:57:09.291Z,852.73
2018-12-01T05:58:09.305Z,852.70
2018-12-01T05:59:09.279Z,852.75
2018-12-01T06:00:09.253Z,852.75
2018-12-01T06:01:09.254Z,852.73
2018-12-01T06:02:09.232Z,852.74
2018-12-01T06:03:09.247Z,852.72
2018-12-01T06:04:09.221Z,852.75
2018-12-01T06:05:09.198Z,852.80
2018-12-01T06:06:09.237Z,852.81
2018-12-01T06:07:09.186Z,852.76
2018-12-01T06:08:09.176Z,852.80
2018-12-01T06:09:09.162Z,852.76
2018-12-01T06:10:09.141Z,852.77
2018-12-01T06:11:09.160Z,852.75
2018-12-01T06:12:09.143Z,852.73
2018-12-01T06:13:09.108Z,852.72
2018-12-01T06:14:09.154Z,852.74
2018-12-01T06:15:09.085Z,852.70
2018-12-01T06:16:09.092Z,852.72
2018-12-01T06:17:09.076Z,852.71
2018-12-01T06:18:09.056Z,852.68
2018-12-01T06:19:09.093Z,852.72
2018-12-01T06:20:09.043Z,852.67
2018-12-01T06:21:09.032Z,852.72
2018-12-01T06:22:09.007Z,852.69
2018-12-01T06:23:09.004Z,852.67
2018-12-01T06:24:09.022Z,852.68
2018-12-01T06:25:08.980Z,852.70
2018-12-01T06:26:08.989Z,852.66
2018-12-01T06:27:08.984Z,852.71
2018-12-01T06:28:08.950Z,852.67
2018-12-01T06:29:08.976Z,852.71
2018-12-01T06:30:08.929Z,852.64
2018-12-01T06:31:08.925Z,852.70
2018-12-01T06:32:08.908Z,852.73
2018-12-01T06:33:08.914Z,852.75
2018-12-01T06:34:08.924Z,852.76
2018-12-01T06:35:08.875Z,852.76
2018-12-01T06:36:08.873Z,852.80
2018-12-01T06:37:08.850Z,852.80
2018-12-01T06:38:08.843Z,852.82
2018-12-01T06:39:08.878Z,852.86
2018-12-01T06:40:08.836Z,852.92
2018-12-01T06:41:08.807Z,852.86
2018-12-01T06:42:08.810Z,852.87
2018-12-01T06:43:08.783Z,852.92
2018-12-01T06:44:08.812Z,852.91
2018-12-01T06:45:08.780Z,852.90
2018-12-01T06:46:08.766Z,852.94
2018-12-01T06:47:08.758Z,852.93
2018-12-01T06:48:08.729Z,852.92
2018-12-01T06:49:08.759Z,852.89
2018-12-01T06:50:08.737Z,852.93
2018-12-01T06:51:08.708Z,852.96
2018-12-01T06:52:08.690Z,852.99
2018-12-01T06:53:08.690Z,853.00
2018-12-01T06:54:08.718Z,853.05
2018-12-01T06:55:08.660Z,853.06
2018-12-01T06:56:08.659Z,853.05
2018-12-01T06:57:08.648Z,853.10
2018-12-01T06:58:08.627Z,853.07
2018-12-01T06:59:08.648Z,853.09
2018-12-01T07:00:08.631Z,853.12
2018-12-01T07:01:08.601Z,853.09
2018-12-01T07:02:08.585Z,853.13
2018-12-01T07:03:08.571Z,853.11
2018-12-01T07:04:08.598Z,853.13
2018-12-01T07:05:08.567Z,853.14
2018-12-01T07:06:08.552Z,853.16
2018-12-01T07:07:08.525Z,853.13
2018-12-01T07:08:08.517Z,853.18
2018-12-01T07:09:08.541Z,853.14
2018-12-01T07:10:08.515Z,853.17
2018-12-01T07:11:08.489Z,853.16
2018-12-01T07:12:08.477Z,853.18
2018-12-01T07:13:08.481Z,853.20
2018-12-01T07:14:08.498Z,853.21
2018-12-01T07:15:08.455Z,853.19
2018-12-01T07:16:08.434Z,853.15
2018-12-01T07:17:08.422Z,853.20
2018-12-01T07:18:08.415Z,853.20
2018-12-01T07:19:08.433Z,853.21
2018-12-01T07:20:08.417Z,853.24
2018-12-01T07:21:08.377Z,853.21
2018-12-01T07:22:08.369Z,853.27
2018-12-01T07:23:08.353Z,853.29
2018-12-01T07:24:08.380Z,853.27
2018-12-01T07:25:08.346Z,853.32
2018-12-01T07:26:08.340Z,853.36
2018-12-01T07:27:08.314Z,853.29
2018-12-01T07:28:08.303Z,853.33
2018-12-01T07:29:08.327Z,853.33
2018-12-01T07:30:08.289Z,853.36
2018-12-01T07:31:08.270Z,853.39
2018-12-01T07:32:08.285Z,853.40
2018-12-01T07:33:08.252Z,853.41
2018-12-01T07:34:08.281Z,853.42
2018-12-01T07:35:08.238Z,853.41
2018-12-01T07:36:08.274Z,853.43
2018-12-01T07:37:08.248Z,853.42
2018-12-01T07:38:08.231Z,853.43
2018-12-01T07:39:08.184Z,853.42
2018-12-01T07:40:08.213Z,853.45
2018-12-01T07:41:08.365Z,853.44
2018-12-01T07:42:08.221Z,853.46
2018-12-01T07:43:08.150Z,853.44
2018-12-01T07:44:08.140Z,853.47
2018-12-01T07:45:08.185Z,853.45
2018-12-01T07:46:08.116Z,853.44
2018-12-01T07:47:08.201Z,853.43
2018-12-01T07:48:08.093Z,853.50
2018-12-01T07:49:08.080Z,853.50
2018-12-01T07:50:08.223Z,853.51
2018-12-01T07:51:08.054Z,853.49
2018-12-01T07:52:08.115Z,853.55
2018-12-01T07:53:08.079Z,853.55
2018-12-01T07:54:08.033Z,853.54
2018-12-01T07:55:08.013Z,853.54
2018-12-01T07:56:08.171Z,853.55
2018-12-01T07:57:07.997Z,853.51
2018-12-01T07:58:07.997Z,853.55
2018-12-01T07:59:08.064Z,853.51
2018-12-01T08:00:07.971Z,853.51
2018-12-01T08:01:07.984Z,853.50
2018-12-01T08:02:07.944Z,853.49
2018-12-01T08:03:07.951Z,853.49
2018-12-01T08:04:07.950Z,853.50
2018-12-01T08:05:07.921Z,853.49
2018-12-01T08:06:07.893Z,853.48
2018-12-01T08:07:07.905Z,853.49
2018-12-01T08:08:07.911Z,853.52
2018-12-01T08:09:08.048Z,853.51
2018-12-01T08:10:07.910Z,853.57
2018-12-01T08:11:07.900Z,853.55
2018-12-01T08:12:08.408Z,853.56
2018-12-01T08:13:07.825Z,853.58
2018-12-01T08:14:07.844Z,853.56
2018-12-01T08:15:07.822Z,853.59
2018-12-01T08:16:07.793Z,853.61
2018-12-01T08:17:07.776Z,853.59
2018-12-01T08:18:07.781Z,853.61
2018-12-01T08:19:07.820Z,853.58
2018-12-01T08:20:07.748Z,853.61
2018-12-01T08:21:07.752Z,853.60
2018-12-01T08:22:07.731Z,853.64
2018-12-01T08:23:07.725Z,853.69
2018-12-01T08:24:07.763Z,853.70
2018-12-01T08:25:07.692Z,853.70
2018-12-01T08:26:07.675Z,853.69
2018-12-01T08:27:07.669Z,853.67
2018-12-01T08:28:07.660Z,853.72
2018-12-01T08:29:07.689Z,853.68
2018-12-01T08:30:07.659Z,853.65
2018-12-01T08:31:07.631Z,853.62
2018-12-01T08:32:07.611Z,853.66
2018-12-01T08:33:07.603Z,853.69
2018-12-01T08:34:07.627Z,853.68
2018-12-01T08:35:07.759Z,853.70
2018-12-01T08:36:07.584Z,853.67
2018-12-01T08:37:07.575Z,853.70
2018-12-01T08:38:07.548Z,853.70
2018-12-01T08:39:07.726Z,853.69
2018-12-01T08:40:07.698Z,853.72
2018-12-01T08:41:07.535Z,853.72
2018-12-01T08:42:07.523Z,853.71
2018-12-01T08:43:07.492Z,853.74
2018-12-01T08:44:07.521Z,853.76
2018-12-01T08:45:07.495Z,853.74
2018-12-01T08:46:07.639Z,853.71
2018-12-01T08:47:07.477Z,853.69
2018-12-01T08:48:07.462Z,853.67
2018-12-01T08:49:07.479Z,853.71
2018-12-01T08:50:07.428Z,853.66
2018-12-01T08:51:07.465Z,853.71
2018-12-01T08:52:07.409Z,853.75
2018-12-01T08:53:07.394Z,853.76
2018-12-01T08:54:07.377Z,853.81
2018-12-01T08:55:07.376Z,853.83
2018-12-01T08:56:07.389Z,853.80
2018-12-01T08:57:08.551Z,853.82
2018-12-01T08:58:07.340Z,853.79
2018-12-01T08:59:07.338Z,853.81
2018-12-01T09:00:07.327Z,853.81
2018-12-01T09:01:07.334Z,853.80
2018-12-01T09:02:07.306Z,853.78
2018-12-01T09:03:07.286Z,853.81
2018-12-01T09:04:08.341Z,853.79
2018-12-01T09:05:07.279Z,853.78
2018-12-01T09:06:07.259Z,853.79
2018-12-01T09:07:07.291Z,853.78
2018-12-01T09:08:07.262Z,853.75
2018-12-01T09:09:07.265Z,853.74
2018-12-01T09:10:07.215Z,853.78
2018-12-01T09:11:07.192Z,853.75
2018-12-01T09:12:07.191Z,853.79
2018-12-01T09:13:07.183Z,853.83
2018-12-01T09:14:07.342Z,853.84
2018-12-01T09:15:08.157Z,853.80
2018-12-01T09:16:07.139Z,853.82
2018-12-01T09:17:07.129Z,853.86
2018-12-01T09:18:07.157Z,853.81
2018-12-01T09:19:07.155Z,853.84
2018-12-01T09:20:07.113Z,853.89
2018-12-01T09:21:07.111Z,853.85
2018-12-01T09:22:07.083Z,853.85
2018-12-01T09:23:07.064Z,853.84
2018-12-01T09:24:07.118Z,853.80
2018-12-01T09:25:07.085Z,853.85
2018-12-01T09:26:07.033Z,853.86
2018-12-01T09:27:07.023Z,853.84
2018-12-01T09:28:07.004Z,853.88
2018-12-01T09:29:06.995Z,853.88
2018-12-01T09:30:07.005Z,853.84
2018-12-01T09:31:06.984Z,853.78
2018-12-01T09:32:06.969Z,853.76
2018-12-01T09:33:06.959Z,853.79
2018-12-01T09:34:06.946Z,853.74
2018-12-01T09:35:06.970Z,853.78
2018-12-01T09:36:06.938Z,853.75
2018-12-01T09:37:06.978Z,853.78
2018-12-01T09:38:06.904Z,853.76
2018-12-01T09:39:06.896Z,853.77
2018-12-01T09:40:06.874Z,853.76
2018-12-01T09:41:06.871Z,853.73
2018-12-01T09:42:06.916Z,853.73
2018-12-01T09:43:06.945Z,853.70
2018-12-01T09:44:06.858Z,853.69
2018-12-01T09:45:06.824Z,853.70
2018-12-01T09:46:30.991Z,853.70
2018-12-01T09:47:07.815Z,853.70
2018-12-01T09:48:06.839Z,853.75
2018-12-01T09:49:06.816Z,853.68
2018-12-01T09:50:06.776Z,853.69
2018-12-01T09:51:06.761Z,853.67
2018-12-01T09:52:06.748Z,853.66
2018-12-01T09:53:06.780Z,853.67
2018-12-01T09:54:06.744Z,853.61
2018-12-01T09:55:06.719Z,853.65
2018-12-01T09:56:07.414Z,853.67
2018-12-01T09:57:06.693Z,853.64
2018-12-01T09:58:06.723Z,853.65
2018-12-01T09:59:06.684Z,853.62
2018-12-01T10:00:06.672Z,853.66
2018-12-01T10:01:06.653Z,853.60
2018-12-01T10:02:06.643Z,853.61
2018-12-01T10:03:06.627Z,853.60
2018-12-01T10:04:06.663Z,853.55
2018-12-01T10:05:06.605Z,853.52
2018-12-01T10:06:06.595Z,853.55
2018-12-01T10:07:06.605Z,853.52
2018-12-01T10:08:06.577Z,853.51
2018-12-01T10:09:06.606Z,853.57
2018-12-01T10:10:06.572Z,853.52
2018-12-01T10:11:06.545Z,853.52
2018-12-01T10:12:06.538Z,853.51
2018-12-01T10:13:06.544Z,853.50
2018-12-01T10:14:06.548Z,853.47
2018-12-01T10:15:06.499Z,853.47
2018-12-01T10:16:06.540Z,853.38
2018-12-01T10:17:06.485Z,853.37
2018-12-01T10:18:06.480Z,853.38
2018-12-01T10:19:06.472Z,853.32
2018-12-01T10:20:06.448Z,853.25
2018-12-01T10:21:06.471Z,853.27
2018-12-01T10:22:06.445Z,853.26
2018-12-01T10:23:06.413Z,853.23
2018-12-01T10:24:06.456Z,853.24
2018-12-01T10:25:06.404Z,853.21
2018-12-01T10:26:07.369Z,853.22
2018-12-01T10:27:06.371Z,853.15
2018-12-01T10:28:06.374Z,853.15
2018-12-01T10:29:06.394Z,853.09
2018-12-01T10:30:06.372Z,853.06
2018-12-01T10:31:06.329Z,853.06
2018-12-01T10:32:06.332Z,853.05
2018-12-01T10:33:06.307Z,853.01
2018-12-01T10:34:06.319Z,852.98
2018-12-01T10:35:06.347Z,852.97
2018-12-01T10:36:06.270Z,852.90
2018-12-01T10:37:06.311Z,852.92
2018-12-01T10:38:06.248Z,852.91
2018-12-01T10:39:06.248Z,852.88
2018-12-01T10:40:06.251Z,852.86
2018-12-01T10:41:06.235Z,852.80
2018-12-01T10:42:06.249Z,852.81
2018-12-01T10:43:06.202Z,852.79
2018-12-01T10:44:06.185Z,852.79
2018-12-01T10:45:06.171Z,852.72
2018-12-01T10:46:06.176Z,852.72
2018-12-01T10:47:06.205Z,852.66
2018-12-01T10:48:06.179Z,852.70
2018-12-01T10:49:06.143Z,852.70
2018-12-01T10:50:06.130Z,852.67
2018-12-01T10:51:06.111Z,852.70
2018-12-01T10:52:06.098Z,852.69
2018-12-01T10:53:06.140Z,852.69
2018-12-01T10:54:06.091Z,852.66
2018-12-01T10:55:06.068Z,852.63
2018-12-01T10:56:06.067Z,852.66
2018-12-01T10:57:06.045Z,852.64
2018-12-01T10:58:06.033Z,852.66
2018-12-01T10:59:06.044Z,852.66
2018-12-01T11:00:06.074Z,852.65
2018-12-01T11:01:06.017Z,852.63
2018-12-01T11:02:05.987Z,852.66
2018-12-01T11:03:05.993Z,852.68
2018-12-01T11:04:05.982Z,852.66
2018-12-01T11:05:06.015Z,852.64
2018-12-01T11:06:06.099Z,852.63
2018-12-01T11:07:05.940Z,852.63
2018-12-01T11:08:06.024Z,852.63
2018-12-01T11:09:05.980Z,852.64
2018-12-01T11:10:05.955Z,852.56
2018-12-01T11:11:05.926Z,852.61
2018-12-01T11:12:05.882Z,852.53
2018-12-01T11:13:05.881Z,852.53
2018-12-01T11:14:05.871Z,852.55
2018-12-01T11:15:05.910Z,852.50
2018-12-01T11:16:05.851Z,852.45
2018-12-01T11:17:05.848Z,852.37
2018-12-01T11:18:05.825Z,852.43
2018-12-01T11:19:05.833Z,852.36
2018-12-01T11:20:05.845Z,852.36
2018-12-01T11:21:06.039Z,852.35
2018-12-01T11:22:05.795Z,852.32
2018-12-01T11:23:05.816Z,852.31
2018-12-01T11:24:05.764Z,852.30
2018-12-01T11:25:05.744Z,852.31
2018-12-01T11:26:06.337Z,852.30
2018-12-01T11:27:05.895Z,852.26
2018-12-01T11:28:05.710Z,852.26
2018-12-01T11:29:05.696Z,852.29
2018-12-01T11:30:05.706Z,852.31
2018-12-01T11:31:05.723Z,852.27
2018-12-01T11:32:05.698Z,852.28
2018-12-01T11:33:05.816Z,852.24
2018-12-01T11:34:05.637Z,852.25
2018-12-01T11:35:05.751Z,852.27
2018-12-01T11:36:05.679Z,852.25
2018-12-01T11:37:05.611Z,852.32
2018-12-01T11:38:05.700Z,852.32
2018-12-01T11:39:05.607Z,852.28
2018-12-01T11:40:05.713Z,852.28
2018-12-01T11:41:05.602Z,852.28
2018-12-01T11:42:05.869Z,852.26
2018-12-01T11:43:05.545Z,852.31
2018-12-01T11:44:07.138Z,852.28
2018-12-01T11:45:05.628Z,852.31
2018-12-01T11:46:05.553Z,852.28
2018-12-01T11:47:05.543Z,852.29
2018-12-01T11:48:05.494Z,852.33
2018-12-01T11:49:05.485Z,852.29
2018-12-01T11:50:06.501Z,852.29
2018-12-01T11:51:05.492Z,852.30
2018-12-01T11:52:05.455Z,852.32
2018-12-01T11:53:05.444Z,852.33
2018-12-01T11:54:05.428Z,852.34
2018-12-01T11:55:05.491Z,852.40
2018-12-01T11:56:05.405Z,852.39
2018-12-01T11:57:05.404Z,852.36
2018-12-01T11:58:05.385Z,852.35
2018-12-01T11:59:05.394Z,852.33
2018-12-01T12:00:05.397Z,852.33
2018-12-01T12:01:05.357Z,852.40
2018-12-01T12:02:05.353Z,852.36
2018-12-01T12:03:05.341Z,852.36
2018-12-01T12:04:05.315Z,852.39
2018-12-01T12:05:05.377Z,852.40
2018-12-01T12:06:05.304Z,852.38
2018-12-01T12:07:05.279Z,852.38
2018-12-01T12:08:05.271Z,852.32
2018-12-01T12:09:05.296Z,852.36
2018-12-01T12:10:05.249Z,852.40
2018-12-01T12:11:05.260Z,852.36
2018-12-01T12:12:05.228Z,852.41
2018-12-01T12:13:05.216Z,852.35
2018-12-01T12:14:05.241Z,852.38
2018-12-01T12:15:06.028Z,852.35
2018-12-01T12:16:05.193Z,852.36
2018-12-01T12:17:05.182Z,852.28
2018-12-01T12:18:05.160Z,852.32
2018-12-01T12:19:05.209Z,852.35
2018-12-01T12:20:05.158Z,852.39
2018-12-01T12:21:05.128Z,852.40
2018-12-01T12:22:05.126Z,852.40
2018-12-01T12:23:05.122Z,852.38
2018-12-01T12:24:05.135Z,852.37
2018-12-01T12:25:05.097Z,852.42
2018-12-01T12:26:05.092Z,852.39
2018-12-01T12:27:05.058Z,852.38
2018-12-01T12:28:05.055Z,852.39